Time;durP1;ratioP1;P1;durP2;ratioP2;P2;SDS_P1;SDS_P2;PMS_P1;PMS_P2;Temp;Humidity;BMP_temperature;BMP_pressure;BME280_temperature;BME280_humidity;BME280_pressure;Samples;Min_cycle;Max_cycle;Signal;HPM_P1;HPM_P2
2021/09/05 00:00:56;;;;;;;;;;;15.70;95.90;;;;;;5071956;28;20395;-70
2021/09/05 00:03:23;;;;;;;;;;;15.80;95.90;;;;;;5072712;28;19909;-70
2021/09/05 00:05:49;;;;;;;;;;;15.90;94.00;;;;;;5072583;28;20411;-70
2021/09/05 00:08:16;;;;;;;;;;;15.90;93.60;;;;;;5072591;28;19909;-70
2021/09/05 00:10:43;;;;;;;;;;;15.90;92.80;;;;;;5104808;28;19916;-69
2021/09/05 00:13:09;;;;;;;;;;;15.90;93.60;;;;;;5072239;28;20426;-69
2021/09/05 00:15:36;;;;;;;;;;;16.00;93.50;;;;;;5071953;28;19978;-69
2021/09/05 00:18:03;;;;;;;;;;;16.20;93.50;;;;;;5071915;28;19908;-70
2021/09/05 00:20:29;;;;;;;;;;;16.30;93.50;;;;;;5070883;28;20003;-69
2021/09/05 00:22:56;;;;;;;;;;;16.50;94.00;;;;;;5072397;28;19915;-69
2021/09/05 00:25:23;;;;;;;;;;;16.50;94.60;;;;;;5071700;28;19963;-70
2021/09/05 00:27:49;;;;;;;;;;;16.50;94.00;;;;;;5072293;28;19912;-70
2021/09/05 00:30:16;;;;;;;;;;;16.40;92.50;;;;;;5072269;28;19923;-70
2021/09/05 00:32:42;;;;;;;;;;;16.50;92.70;;;;;;5071826;28;20026;-70
2021/09/05 00:35:09;;;;;;;;;;;16.50;93.00;;;;;;5104809;28;19920;-70
2021/09/05 00:37:36;;;;;;;;;;;16.50;91.80;;;;;;5072218;28;19944;-70
2021/09/05 00:40:03;;;;;;;;;;;16.50;93.30;;;;;;5072298;28;19943;-70
2021/09/05 00:42:29;;;;;;;;;;;16.50;92.10;;;;;;5072426;28;20325;-70
2021/09/05 00:44:56;;;;;;;;;;;16.70;93.30;;;;;;5072690;28;20360;-70
2021/09/05 00:47:23;;;;;;;;;;;16.70;90.90;;;;;;5072018;28;20012;-70
2021/09/05 00:49:49;;;;;;;;;;;16.90;91.90;;;;;;5071992;28;20438;-70
2021/09/05 00:52:18;;;;;;;;;;;16.70;90.30;;;;;;5072872;28;19908;-70
2021/09/05 00:54:46;;;;;;;;;;;16.90;91.30;;;;;;5072281;28;19908;-70
2021/09/05 00:57:13;;;;;;;;;;;16.80;90.90;;;;;;5071996;28;19916;-70
2021/09/05 00:59:41;;;;;;;;;;;16.90;90.50;;;;;;5071624;28;20385;-70
2021/09/05 01:02:07;;;;;;;;;;;17.00;91.90;;;;;;5071570;28;20003;-70
2021/09/05 01:04:34;;;;;;;;;;;17.10;88.50;;;;;;5072130;28;19916;-69
2021/09/05 01:07:01;;;;;;;;;;;17.00;88.40;;;;;;5072253;28;19915;-70
2021/09/05 01:09:28;;;;;;;;;;;17.30;90.00;;;;;;5072122;28;19920;-69
2021/09/05 01:11:56;;;;;;;;;;;17.40;85.60;;;;;;5071905;28;19935;-69
2021/09/05 01:14:23;;;;;;;;;;;17.60;87.20;;;;;;5071763;28;19908;-69
2021/09/05 01:16:50;;;;;;;;;;;17.80;85.80;;;;;;5071332;28;19995;-70
2021/09/05 01:19:18;;;;;;;;;;;18.00;84.50;;;;;;5072054;28;19956;-69
2021/09/05 01:21:46;;;;;;;;;;;18.60;81.80;;;;;;5071618;28;19930;-69
2021/09/05 01:24:13;;;;;;;;;;;18.70;80.10;;;;;;5071722;28;19908;-68
2021/09/05 01:26:41;;;;;;;;;;;19.10;81.30;;;;;;5071883;28;19954;-69
2021/09/05 01:29:08;;;;;;;;;;;19.00;86.40;;;;;;5071706;28;20014;-69
2021/09/05 01:31:37;;;;;;;;;;;19.00;83.80;;;;;;5071384;28;19908;-69
2021/09/05 01:34:04;;;;;;;;;;;18.60;82.30;;;;;;5071953;28;19915;-71
2021/09/05 01:36:31;;;;;;;;;;;18.20;83.00;;;;;;5074102;28;19914;-69
2021/09/05 01:38:57;;;;;;;;;;;18.20;81.80;;;;;;5075441;28;19908;-68
2021/09/05 01:41:24;;;;;;;;;;;18.10;81.40;;;;;;5075198;28;19909;-69
2021/09/05 01:43:56;;;;;;;;;;;18.10;86.00;;;;;;5074820;28;19928;-69
2021/09/05 01:46:23;;;;;;;;;;;18.10;83.00;;;;;;5074356;28;19921;-69
2021/09/05 01:48:49;;;;;;;;;;;18.20;82.10;;;;;;5074904;28;20324;-69
2021/09/05 01:51:16;;;;;;;;;;;18.30;83.30;;;;;;5075023;28;19913;-70
2021/09/05 01:53:42;;;;;;;;;;;18.20;81.90;;;;;;5074716;28;19953;-69
2021/09/05 01:56:09;;;;;;;;;;;18.00;81.10;;;;;;5074974;28;19919;-69
2021/09/05 01:58:36;;;;;;;;;;;17.90;82.10;;;;;;5074718;28;19962;-69
2021/09/05 02:01:02;;;;;;;;;;;17.80;81.80;;;;;;5074169;28;20047;-69
2021/09/05 02:03:29;;;;;;;;;;;17.60;81.40;;;;;;5074637;28;20338;-68
2021/09/05 02:05:56;;;;;;;;;;;17.60;85.40;;;;;;5074877;28;19916;-69
2021/09/05 02:08:22;;;;;;;;;;;17.70;80.80;;;;;;5074702;28;19959;-69
2021/09/05 02:10:49;;;;;;;;;;;17.50;80.30;;;;;;5074439;28;19920;-69
2021/09/05 02:13:15;;;;;;;;;;;17.50;82.40;;;;;;5074622;28;19930;-69
2021/09/05 02:15:42;;;;;;;;;;;17.70;80.00;;;;;;5073885;28;19908;-69
2021/09/05 02:18:09;;;;;;;;;;;17.80;79.10;;;;;;5074459;28;20363;-69
2021/09/05 02:20:35;;;;;;;;;;;17.70;80.50;;;;;;5074326;28;19908;-69
2021/09/05 02:23:02;;;;;;;;;;;17.60;79.30;;;;;;5074318;28;19961;-69
2021/09/05 02:25:29;;;;;;;;;;;17.50;81.50;;;;;;5074119;28;19913;-69
2021/09/05 02:27:56;;;;;;;;;;;17.70;79.50;;;;;;5074193;28;19908;-69
2021/09/05 02:30:22;;;;;;;;;;;17.50;82.20;;;;;;5073289;28;19959;-69
2021/09/05 02:32:49;;;;;;;;;;;17.50;79.10;;;;;;5074102;28;20280;-68
2021/09/05 02:35:16;;;;;;;;;;;17.40;80.00;;;;;;5074131;28;19913;-68
2021/09/05 02:37:43;;;;;;;;;;;17.50;78.80;;;;;;5073846;28;19909;-68
2021/09/05 02:40:09;;;;;;;;;;;17.50;80.40;;;;;;5073884;28;19963;-69
2021/09/05 02:42:36;;;;;;;;;;;17.30;76.60;;;;;;5073875;28;20007;-69
2021/09/05 02:45:04;;;;;;;;;;;17.10;75.50;;;;;;5073093;28;19952;-68
2021/09/05 02:47:31;;;;;;;;;;;16.90;76.60;;;;;;5072667;28;19920;-68
2021/09/05 02:49:58;;;;;;;;;;;16.90;79.60;;;;;;5073696;28;19912;-69
2021/09/05 02:52:24;;;;;;;;;;;17.10;78.60;;;;;;5073677;28;19962;-69
2021/09/05 02:54:51;;;;;;;;;;;17.10;74.20;;;;;;5074045;28;20003;-68
2021/09/05 02:57:18;;;;;;;;;;;17.10;74.50;;;;;;5073678;28;19908;-68
2021/09/05 02:59:44;;;;;;;;;;;17.30;75.20;;;;;;5072608;28;20045;-68
2021/09/05 03:02:11;;;;;;;;;;;17.30;74.60;;;;;;5073474;28;19920;-69
2021/09/05 03:04:38;;;;;;;;;;;17.40;74.10;;;;;;5073242;28;19995;-69
2021/09/05 03:07:04;;;;;;;;;;;17.50;76.90;;;;;;5073420;28;19955;-69
2021/09/05 03:09:31;;;;;;;;;;;17.50;77.30;;;;;;5073122;28;19920;-69
2021/09/05 03:11:58;;;;;;;;;;;17.70;79.40;;;;;;5073320;28;20382;-69
2021/09/05 03:14:24;;;;;;;;;;;17.80;75.40;;;;;;5072855;28;19909;-69
2021/09/05 03:16:51;;;;;;;;;;;18.00;75.10;;;;;;5073327;28;19908;-69
2021/09/05 03:19:17;;;;;;;;;;;17.90;73.20;;;;;;5073086;28;19955;-69
2021/09/05 03:21:46;;;;;;;;;;;17.80;73.40;;;;;;5072955;28;19985;-69
2021/09/05 03:24:13;;;;;;;;;;;17.60;72.90;;;;;;5106111;28;20374;-69
2021/09/05 03:26:40;;;;;;;;;;;17.50;73.60;;;;;;5072988;28;19909;-70
2021/09/05 03:29:06;;;;;;;;;;;17.50;75.70;;;;;;5072555;28;19908;-69
2021/09/05 03:31:33;;;;;;;;;;;17.50;74.10;;;;;;5082520;28;19912;-69
2021/09/05 03:34:00;;;;;;;;;;;17.60;72.20;;;;;;5073345;28;19909;-69
2021/09/05 03:36:27;;;;;;;;;;;17.60;73.10;;;;;;5073144;28;19915;-69
2021/09/05 03:38:53;;;;;;;;;;;17.50;72.70;;;;;;5072942;28;20304;-69
2021/09/05 03:41:20;;;;;;;;;;;17.40;72.60;;;;;;5072945;28;20283;-69
2021/09/05 03:43:47;;;;;;;;;;;17.50;75.90;;;;;;5072554;28;19909;-69
2021/09/05 03:46:13;;;;;;;;;;;17.40;74.30;;;;;;5072590;28;19920;-69
2021/09/05 03:48:40;;;;;;;;;;;17.50;72.20;;;;;;5072651;28;20247;-69
2021/09/05 03:51:06;;;;;;;;;;;17.50;71.50;;;;;;5072768;28;19916;-69
2021/09/05 03:53:33;;;;;;;;;;;17.50;73.20;;;;;;5072897;28;20009;-69
2021/09/05 03:56:01;;;;;;;;;;;17.50;74.70;;;;;;5073920;28;19913;-85
2021/09/05 03:58:28;;;;;;;;;;;17.50;72.20;;;;;;5073548;28;19909;-70
2021/09/05 04:00:54;;;;;;;;;;;17.50;73.10;;;;;;5072928;28;20418;-69
2021/09/05 04:03:23;;;;;;;;;;;17.60;73.10;;;;;;5072772;28;19987;-70
2021/09/05 04:05:50;;;;;;;;;;;17.70;71.90;;;;;;5072564;28;20425;-69
2021/09/05 04:08:17;;;;;;;;;;;17.60;72.40;;;;;;5072869;28;19916;-70
2021/09/05 04:10:46;;;;;;;;;;;17.60;72.30;;;;;;5072749;28;19920;-70
2021/09/05 04:13:14;;;;;;;;;;;17.50;73.10;;;;;;5071830;28;19915;-69
2021/09/05 04:15:42;;;;;;;;;;;17.50;73.90;;;;;;5072674;28;19931;-69
2021/09/05 04:18:09;;;;;;;;;;;17.50;72.20;;;;;;5072617;28;19998;-70
2021/09/05 04:20:36;;;;;;;;;;;17.40;72.60;;;;;;5072796;28;20008;-70
2021/09/05 04:23:02;;;;;;;;;;;17.30;72.50;;;;;;5072787;28;19908;-69
2021/09/05 04:25:29;;;;;;;;;;;17.30;76.10;;;;;;5072299;28;19974;-69
2021/09/05 04:27:56;;;;;;;;;;;17.40;74.90;;;;;;5072196;28;19909;-69
2021/09/05 04:30:22;;;;;;;;;;;17.50;75.20;;;;;;5072253;28;19916;-69
2021/09/05 04:32:51;;;;;;;;;;;17.60;76.90;;;;;;5072326;28;20274;-69
2021/09/05 04:35:18;;;;;;;;;;;17.70;74.20;;;;;;5072522;28;19915;-69
2021/09/05 04:37:44;;;;;;;;;;;17.70;75.00;;;;;;5104565;28;19939;-69
2021/09/05 04:40:11;;;;;;;;;;;17.60;75.20;;;;;;5072382;28;20355;-69
2021/09/05 04:42:38;;;;;;;;;;;17.50;74.70;;;;;;5072211;28;20385;-69
2021/09/05 04:45:05;;;;;;;;;;;17.50;74.10;;;;;;5072236;28;19932;-69
2021/09/05 04:47:34;;;;;;;;;;;17.50;74.20;;;;;;5071713;28;20686;-69
2021/09/05 04:50:01;;;;;;;;;;;17.50;75.60;;;;;;5072155;28;19921;-70
2021/09/05 04:52:28;;;;;;;;;;;17.50;75.60;;;;;;5072143;28;19915;-69
2021/09/05 04:54:55;;;;;;;;;;;17.40;72.70;;;;;;5072336;28;19908;-69
2021/09/05 04:57:21;;;;;;;;;;;17.30;73.40;;;;;;5071988;28;19915;-70
2021/09/05 04:59:48;;;;;;;;;;;17.30;75.60;;;;;;5071786;28;19947;-70
2021/09/05 05:02:15;;;;;;;;;;;17.30;75.80;;;;;;5072167;28;20371;-69
2021/09/05 05:04:41;;;;;;;;;;;17.10;73.90;;;;;;5072353;28;19915;-69
2021/09/05 05:07:10;;;;;;;;;;;17.10;75.70;;;;;;5072076;28;19956;-70
2021/09/05 05:09:43;;;;;;;;;;;17.10;75.10;;;;;;5071732;28;20328;-71
2021/09/05 05:12:11;;;;;;;;;;;17.10;78.00;;;;;;5075599;28;19908;-70
2021/09/05 05:14:38;;;;;;;;;;;17.20;77.30;;;;;;5075871;28;19909;-70
2021/09/05 05:17:04;;;;;;;;;;;17.20;76.40;;;;;;5075811;28;20378;-69
2021/09/05 05:19:34;;;;;;;;;;;17.20;75.90;;;;;;5075611;28;19927;-69
2021/09/05 05:22:00;;;;;;;;;;;17.20;75.20;;;;;;5075875;28;19948;-69
2021/09/05 05:24:28;;;;;;;;;;;17.20;77.50;;;;;;5075534;28;20030;-69
2021/09/05 05:26:55;;;;;;;;;;;17.10;75.00;;;;;;5075668;28;19919;-70
2021/09/05 05:29:21;;;;;;;;;;;17.00;75.40;;;;;;5091078;28;19921;-70
2021/09/05 05:31:53;;;;;;;;;;;16.90;77.80;;;;;;5075388;28;19955;-69
2021/09/05 05:34:19;;;;;;;;;;;16.80;76.30;;;;;;5075746;28;19918;-69
2021/09/05 05:36:46;;;;;;;;;;;16.90;76.50;;;;;;5075562;28;19957;-69
2021/09/05 05:39:13;;;;;;;;;;;16.80;75.70;;;;;;5075356;28;19962;-69
2021/09/05 05:41:40;;;;;;;;;;;16.70;74.70;;;;;;5107700;28;19909;-69
2021/09/05 05:44:06;;;;;;;;;;;16.70;76.40;;;;;;5075232;28;20381;-69
2021/09/05 05:46:33;;;;;;;;;;;16.60;75.70;;;;;;5075043;28;19920;-69
2021/09/05 05:49:00;;;;;;;;;;;16.50;77.00;;;;;;5075086;28;20028;-69
2021/09/05 05:51:27;;;;;;;;;;;16.40;77.10;;;;;;5075272;28;19913;-69
2021/09/05 05:53:53;;;;;;;;;;;16.40;76.80;;;;;;5074995;28;19909;-69
2021/09/05 05:56:20;;;;;;;;;;;16.20;77.20;;;;;;5075199;28;20082;-69
2021/09/05 05:58:46;;;;;;;;;;;16.20;78.00;;;;;;5074842;28;19950;-69
2021/09/05 06:01:13;;;;;;;;;;;16.20;78.20;;;;;;5074867;28;19908;-69
2021/09/05 06:03:40;;;;;;;;;;;16.20;77.40;;;;;;5074725;28;19909;-69
2021/09/05 06:06:06;;;;;;;;;;;16.10;76.40;;;;;;5074828;28;20011;-69
2021/09/05 06:08:33;;;;;;;;;;;16.10;76.60;;;;;;5074727;28;19912;-69
2021/09/05 06:11:00;;;;;;;;;;;16.10;78.80;;;;;;5074645;28;19994;-69
2021/09/05 06:13:26;;;;;;;;;;;16.10;78.50;;;;;;5074582;28;20248;-69
2021/09/05 06:15:53;;;;;;;;;;;16.00;77.70;;;;;;5074642;28;19909;-69
2021/09/05 06:18:20;;;;;;;;;;;15.90;78.90;;;;;;5074557;28;19909;-69
2021/09/05 06:20:46;;;;;;;;;;;15.80;79.80;;;;;;5074486;28;19931;-69
2021/09/05 06:23:13;;;;;;;;;;;15.80;80.50;;;;;;5073363;28;20009;-69
2021/09/05 06:25:40;;;;;;;;;;;15.80;80.50;;;;;;5074288;28;19908;-69
2021/09/05 06:28:06;;;;;;;;;;;15.80;80.20;;;;;;5074346;28;19908;-69
2021/09/05 06:30:33;;;;;;;;;;;15.70;80.80;;;;;;5074234;28;19917;-68
2021/09/05 06:33:00;;;;;;;;;;;15.70;80.50;;;;;;5074451;28;19908;-68
2021/09/05 06:35:27;;;;;;;;;;;15.60;81.50;;;;;;5074272;28;20329;-68
2021/09/05 06:37:54;;;;;;;;;;;15.70;83.00;;;;;;5074005;28;19995;-68
2021/09/05 06:40:20;;;;;;;;;;;15.70;81.40;;;;;;5074205;28;20012;-68
2021/09/05 06:42:47;;;;;;;;;;;15.60;80.70;;;;;;5073939;28;20279;-69
2021/09/05 06:45:13;;;;;;;;;;;15.50;81.80;;;;;;5074045;28;19995;-69
2021/09/05 06:47:40;;;;;;;;;;;15.50;82.00;;;;;;5073435;28;19921;-70
2021/09/05 06:50:07;;;;;;;;;;;15.50;81.10;;;;;;5073346;28;20402;-70
2021/09/05 06:52:34;;;;;;;;;;;15.40;81.10;;;;;;5073872;28;19912;-69
2021/09/05 06:55:00;;;;;;;;;;;15.40;81.90;;;;;;5072592;28;19915;-69
2021/09/05 06:57:27;;;;;;;;;;;15.30;81.80;;;;;;5106358;28;19909;-69
2021/09/05 06:59:54;;;;;;;;;;;15.30;81.70;;;;;;5073618;28;19954;-69
2021/09/05 07:02:21;;;;;;;;;;;15.30;82.40;;;;;;5073826;28;19908;-69
2021/09/05 07:04:48;;;;;;;;;;;15.30;82.50;;;;;;5073572;28;19979;-69
2021/09/05 07:07:14;;;;;;;;;;;15.20;83.20;;;;;;5073898;28;19908;-70
2021/09/05 07:09:41;;;;;;;;;;;15.20;83.70;;;;;;5105871;28;19923;-70
2021/09/05 07:12:08;;;;;;;;;;;15.20;84.10;;;;;;5073424;28;19928;-67
2021/09/05 07:14:35;;;;;;;;;;;15.20;85.30;;;;;;5073618;28;19908;-68
2021/09/05 07:17:01;;;;;;;;;;;15.10;86.90;;;;;;5073410;28;19909;-69
2021/09/05 07:19:28;;;;;;;;;;;14.90;88.30;;;;;;5073282;28;19970;-68
2021/09/05 07:21:55;;;;;;;;;;;14.70;89.30;;;;;;5073116;28;20425;-68
2021/09/05 07:24:21;;;;;;;;;;;14.60;90.50;;;;;;5073179;28;19912;-69
2021/09/05 07:26:48;;;;;;;;;;;14.60;91.40;;;;;;5073124;28;19908;-68
2021/09/05 07:29:17;;;;;;;;;;;14.50;92.40;;;;;;5073171;28;19931;-68
2021/09/05 07:31:45;;;;;;;;;;;14.50;91.40;;;;;;5072018;28;19919;-69
2021/09/05 07:34:11;;;;;;;;;;;14.50;92.00;;;;;;5074177;28;19985;-68
2021/09/05 07:36:38;;;;;;;;;;;14.50;92.60;;;;;;5072968;28;19951;-68
2021/09/05 07:39:05;;;;;;;;;;;14.40;93.30;;;;;;5072885;28;19908;-68
2021/09/05 07:41:31;;;;;;;;;;;14.20;94.70;;;;;;5072539;28;19908;-68
2021/09/05 07:43:58;;;;;;;;;;;14.00;97.00;;;;;;5073255;28;19961;-68
2021/09/05 07:46:25;;;;;;;;;;;13.80;97.80;;;;;;5072143;28;20288;-68
2021/09/05 07:48:52;;;;;;;;;;;13.50;99.90;;;;;;5072878;28;19915;-68
2021/09/05 07:51:23;;;;;;;;;;;13.40;99.90;;;;;;5072774;28;19939;-69
2021/09/05 07:53:51;;;;;;;;;;;13.20;99.90;;;;;;5072809;28;20468;-69
2021/09/05 07:56:18;;;;;;;;;;;13.00;99.90;;;;;;5072736;28;19908;-69
2021/09/05 07:58:45;;;;;;;;;;;12.70;99.90;;;;;;5072453;28;20351;-69
2021/09/05 08:01:11;;;;;;;;;;;12.50;99.90;;;;;;5072055;28;19912;-69
2021/09/05 08:03:39;;;;;;;;;;;12.30;99.90;;;;;;5072233;28;19908;-70
2021/09/05 08:06:07;;;;;;;;;;;12.20;99.90;;;;;;5072501;28;19908;-69
2021/09/05 08:08:36;;;;;;;;;;;12.10;99.90;;;;;;5072724;28;19909;-69
2021/09/05 08:11:04;;;;;;;;;;;12.00;99.90;;;;;;5072425;28;20411;-69
2021/09/05 08:13:31;;;;;;;;;;;12.00;99.90;;;;;;5071952;28;19909;-68
2021/09/05 08:16:01;;;;;;;;;;;12.00;99.90;;;;;;5071850;28;19995;-68
2021/09/05 08:18:45;;;;;;;;;;;12.00;99.90;;;;;;5072407;28;19915;-68
2021/09/05 08:21:12;;;;;;;;;;;12.00;99.90;;;;;;5072500;28;20356;-68
2021/09/05 08:23:39;;;;;;;;;;;12.00;99.90;;;;;;5072117;28;20007;-70
2021/09/05 08:26:06;;;;;;;;;;;12.00;99.90;;;;;;5071046;28;20004;-70
2021/09/05 08:28:33;;;;;;;;;;;12.10;99.90;;;;;;5072125;28;19930;-69
2021/09/05 08:31:00;;;;;;;;;;;12.00;99.90;;;;;;5071476;28;19928;-69
2021/09/05 08:33:26;;;;;;;;;;;12.00;99.90;;;;;;5072298;28;20370;-69
2021/09/05 08:35:53;;;;;;;;;;;11.90;99.90;;;;;;5072057;28;19908;-70
2021/09/05 08:38:20;;;;;;;;;;;11.80;99.90;;;;;;5072419;28;19912;-70
2021/09/05 08:40:47;;;;;;;;;;;11.80;99.90;;;;;;5072114;28;19985;-70
2021/09/05 08:43:14;;;;;;;;;;;11.70;99.90;;;;;;5072202;28;20224;-70
2021/09/05 08:45:43;;;;;;;;;;;11.70;99.90;;;;;;5072687;28;20030;-70
2021/09/05 08:48:10;;;;;;;;;;;11.70;99.90;;;;;;5074933;28;19923;-70
2021/09/05 08:50:36;;;;;;;;;;;11.60;99.90;;;;;;5076206;28;19917;-71
2021/09/05 08:53:03;;;;;;;;;;;11.60;99.90;;;;;;5076022;28;20330;-69
2021/09/05 08:55:30;;;;;;;;;;;11.60;99.90;;;;;;5076115;28;19916;-69
2021/09/05 08:57:56;;;;;;;;;;;11.60;99.90;;;;;;5076152;28;19962;-70
2021/09/05 09:00:23;;;;;;;;;;;11.70;99.90;;;;;;5075634;28;19940;-70
2021/09/05 09:02:52;;;;;;;;;;;11.70;99.90;;;;;;5075949;28;19913;-70
2021/09/05 09:05:42;;;;;;;;;;;11.70;99.90;;;;;;5076171;28;19916;-70
2021/09/05 09:08:09;;;;;;;;;;;11.70;99.90;;;;;;5076380;28;19944;-70
2021/09/05 09:11:05;;;;;;;;;;;11.70;99.90;;;;;;5076067;28;19921;-70
2021/09/05 09:13:37;;;;;;;;;;;11.90;99.90;;;;;;5070939;28;19915;-70
2021/09/05 09:16:08;;;;;;;;;;;12.00;99.90;;;;;;5075423;28;19930;-70
2021/09/05 09:18:36;;;;;;;;;;;12.10;99.90;;;;;;5075884;28;20404;-70
2021/09/05 09:21:05;;;;;;;;;;;12.30;99.90;;;;;;5075655;28;19909;-70
2021/09/05 09:23:33;;;;;;;;;;;12.30;99.90;;;;;;5075617;28;19908;-70
2021/09/05 09:26:06;;;;;;;;;;;12.20;99.90;;;;;;5075640;28;20358;-70
2021/09/05 09:28:36;;;;;;;;;;;12.10;99.90;;;;;;5075913;28;19908;-70
2021/09/05 09:31:13;;;;;;;;;;;12.20;99.90;;;;;;5074823;28;20455;-70
2021/09/05 09:33:40;;;;;;;;;;;12.20;99.90;;;;;;5075303;28;20287;-70
2021/09/05 09:36:09;;;;;;;;;;;12.00;99.90;;;;;;5075442;28;20362;-70
2021/09/05 09:38:36;;;;;;;;;;;11.90;99.90;;;;;;5075367;28;20375;-70
2021/09/05 09:41:11;;;;;;;;;;;11.90;99.90;;;;;;5075245;28;19908;-71
2021/09/05 09:43:48;;;;;;;;;;;12.00;99.90;;;;;;5075019;28;20282;-71
2021/09/05 09:46:16;;;;;;;;;;;12.00;99.90;;;;;;5075149;28;19917;-70
2021/09/05 09:48:47;;;;;;;;;;;12.00;99.90;;;;;;5075240;28;19908;-70
2021/09/05 09:51:14;;;;;;;;;;;12.10;99.90;;;;;;5075087;28;19916;-69
2021/09/05 09:53:41;;;;;;;;;;;12.20;99.90;;;;;;5074673;28;19999;-69
2021/09/05 09:56:09;;;;;;;;;;;12.30;99.90;;;;;;5074850;28;19934;-69
2021/09/05 09:58:36;;;;;;;;;;;12.40;99.90;;;;;;5075640;28;20280;-68
2021/09/05 10:01:04;;;;;;;;;;;12.50;99.90;;;;;;5075190;27;19913;-70
2021/09/05 10:03:31;;;;;;;;;;;12.60;99.90;;;;;;5073251;28;19909;-70
2021/09/05 10:06:02;;;;;;;;;;;12.60;99.90;;;;;;5073348;28;20370;-70
2021/09/05 10:08:33;;;;;;;;;;;12.50;99.90;;;;;;5074200;28;20437;-70
2021/09/05 10:11:00;;;;;;;;;;;12.30;99.90;;;;;;5074588;28;19927;-70
2021/09/05 10:13:30;;;;;;;;;;;12.40;99.90;;;;;;5074679;28;19991;-70
2021/09/05 10:15:57;;;;;;;;;;;12.50;99.90;;;;;;5074653;28;19978;-70
2021/09/05 10:18:24;;;;;;;;;;;12.50;99.90;;;;;;5074459;28;19908;-70
2021/09/05 10:20:50;;;;;;;;;;;12.60;99.90;;;;;;5074463;28;20317;-70
2021/09/05 10:23:30;;;;;;;;;;;12.60;99.90;;;;;;5073996;28;19962;-69
2021/09/05 10:26:04;;;;;;;;;;;12.60;99.90;;;;;;5072940;28;20302;-70
2021/09/05 10:28:34;;;;;;;;;;;12.60;99.90;;;;;;5074294;28;19909;-70
2021/09/05 10:31:00;;;;;;;;;;;12.60;99.90;;;;;;5074287;28;19917;-70
2021/09/05 10:33:34;;;;;;;;;;;12.60;99.90;;;;;;5074355;28;20325;-70
2021/09/05 10:36:04;;;;;;;;;;;12.60;99.90;;;;;;5074252;28;19909;-70
2021/09/05 10:38:35;;;;;;;;;;;12.60;99.90;;;;;;5074246;28;19958;-70
2021/09/05 10:41:06;;;;;;;;;;;12.60;99.90;;;;;;5073991;28;20267;-71
2021/09/05 10:43:48;;;;;;;;;;;12.60;99.90;;;;;;5074537;28;19916;-70
2021/09/05 10:46:16;;;;;;;;;;;12.40;99.90;;;;;;5073854;28;20359;-70
2021/09/05 10:48:46;;;;;;;;;;;12.40;99.90;;;;;;5074037;28;19963;-69
2021/09/05 10:51:15;;;;;;;;;;;12.40;99.90;;;;;;5073395;28;19921;-69
2021/09/05 10:54:08;;;;;;;;;;;12.50;99.90;;;;;;5073736;28;19912;-69
2021/09/05 10:56:37;;;;;;;;;;;12.60;99.90;;;;;;5073082;28;20023;-70
2021/09/05 10:59:05;;;;;;;;;;;12.50;99.90;;;;;;5074253;28;20367;-70
2021/09/05 11:01:36;;;;;;;;;;;12.50;99.90;;;;;;5073722;28;19908;-70
2021/09/05 11:04:13;;;;;;;;;;;12.50;99.90;;;;;;5073612;28;19908;-70
2021/09/05 11:06:42;;;;;;;;;;;12.70;99.90;;;;;;5073111;28;20412;-70
2021/09/05 11:09:24;;;;;;;;;;;12.70;99.90;;;;;;5072819;28;19916;-70
2021/09/05 11:12:12;;;;;;;;;;;12.80;99.90;;;;;;5073244;28;20275;-69
2021/09/05 11:14:40;;;;;;;;;;;12.90;99.90;;;;;;5073410;28;19913;-70
2021/09/05 11:17:10;;;;;;;;;;;13.00;99.90;;;;;;5073413;28;19909;-69
2021/09/05 11:19:37;;;;;;;;;;;12.90;99.90;;;;;;5105642;28;19988;-70
2021/09/05 11:22:05;;;;;;;;;;;12.90;99.90;;;;;;5072838;28;19999;-69
2021/09/05 11:24:32;;;;;;;;;;;12.90;99.90;;;;;;5073248;28;19908;-69
2021/09/05 11:27:03;;;;;;;;;;;12.90;99.90;;;;;;5073066;28;19951;-69
2021/09/05 11:29:30;;;;;;;;;;;12.90;99.90;;;;;;5072980;28;19920;-71
2021/09/05 11:32:03;;;;;;;;;;;12.90;99.90;;;;;;5073110;28;19916;-70
2021/09/05 11:34:30;;;;;;;;;;;12.80;99.90;;;;;;5073099;28;19912;-70
2021/09/05 11:36:57;;;;;;;;;;;12.80;99.90;;;;;;5072465;28;20401;-70
2021/09/05 11:39:23;;;;;;;;;;;12.80;99.90;;;;;;5073022;28;20000;-71
2021/09/05 11:41:57;;;;;;;;;;;12.70;99.90;;;;;;5072656;28;19912;-70
2021/09/05 11:44:41;;;;;;;;;;;12.70;99.90;;;;;;5073050;28;19916;-68
2021/09/05 11:47:08;;;;;;;;;;;12.70;99.90;;;;;;5072748;28;19981;-68
2021/09/05 11:49:35;;;;;;;;;;;12.70;99.90;;;;;;5072531;28;19924;-70
2021/09/05 11:52:02;;;;;;;;;;;12.70;99.90;;;;;;5072239;28;19919;-68
2021/09/05 11:54:28;;;;;;;;;;;12.70;99.90;;;;;;5072887;28;20295;-70
2021/09/05 11:56:55;;;;;;;;;;;12.70;99.90;;;;;;5072699;28;19909;-69
2021/09/05 11:59:22;;;;;;;;;;;12.70;99.90;;;;;;5072736;28;20355;-70
2021/09/05 12:01:50;;;;;;;;;;;12.70;99.90;;;;;;5072590;28;20659;-69
2021/09/05 12:04:17;;;;;;;;;;;12.70;99.90;;;;;;5072908;28;19909;-69
2021/09/05 12:06:44;;;;;;;;;;;12.60;99.90;;;;;;5072125;28;19909;-69
2021/09/05 12:09:11;;;;;;;;;;;12.70;99.90;;;;;;5072450;28;19957;-69
2021/09/05 12:11:56;;;;;;;;;;;12.60;99.90;;;;;;5072142;28;20326;-69
2021/09/05 12:14:32;;;;;;;;;;;12.60;99.90;;;;;;5072491;28;19944;-71
2021/09/05 12:16:59;;;;;;;;;;;12.60;99.90;;;;;;5072588;28;19909;-71
2021/09/05 12:19:25;;;;;;;;;;;12.70;99.90;;;;;;5071939;28;20356;-71
2021/09/05 12:21:57;;;;;;;;;;;12.70;99.90;;;;;;5071683;28;20372;-70
2021/09/05 12:24:24;;;;;;;;;;;12.70;99.90;;;;;;5072295;28;19908;-71
2021/09/05 12:26:51;;;;;;;;;;;12.70;99.90;;;;;;5072250;28;19908;-71
2021/09/05 12:29:29;;;;;;;;;;;12.70;99.90;;;;;;5072289;28;20378;-71
2021/09/05 12:32:03;;;;;;;;;;;12.80;99.90;;;;;;5072271;28;19912;-70
2021/09/05 12:34:36;;;;;;;;;;;12.70;99.90;;;;;;5072494;28;19913;-71
2021/09/05 12:37:19;;;;;;;;;;;12.70;99.90;;;;;;5071950;28;19915;-70
2021/09/05 12:39:46;;;;;;;;;;;12.70;99.90;;;;;;5071978;28;19961;-70
2021/09/05 12:42:14;;;;;;;;;;;12.70;99.90;;;;;;5072204;28;19909;-70
2021/09/05 12:44:41;;;;;;;;;;;12.80;99.90;;;;;;5072148;28;19913;-70
2021/09/05 12:47:08;;;;;;;;;;;12.80;99.90;;;;;;5071984;28;20390;-70
2021/09/05 12:49:39;;;;;;;;;;;12.80;99.90;;;;;;5071833;28;19982;-69
2021/09/05 12:52:07;;;;;;;;;;;12.70;99.90;;;;;;5072350;28;20391;-69
2021/09/05 12:54:40;;;;;;;;;;;12.80;99.90;;;;;;5072188;28;19993;-69
2021/09/05 12:57:08;;;;;;;;;;;12.80;99.90;;;;;;5072296;28;19909;-70
2021/09/05 12:59:35;;;;;;;;;;;12.80;99.90;;;;;;5071978;28;19909;-69
2021/09/05 13:02:02;;;;;;;;;;;12.70;99.90;;;;;;5071965;28;19915;-69
2021/09/05 13:04:28;;;;;;;;;;;12.80;99.90;;;;;;5071408;28;20265;-70
2021/09/05 13:06:55;;;;;;;;;;;12.70;99.90;;;;;;5071823;28;19909;-70
2021/09/05 13:09:22;;;;;;;;;;;12.70;99.90;;;;;;5071768;28;19914;-70
2021/09/05 13:11:48;;;;;;;;;;;12.80;99.90;;;;;;5071582;28;19908;-69
2021/09/05 13:14:15;;;;;;;;;;;12.70;99.90;;;;;;5071834;28;20007;-69
2021/09/05 13:16:42;;;;;;;;;;;12.70;99.90;;;;;;5071616;28;20379;-70
2021/09/05 13:19:08;;;;;;;;;;;12.70;99.90;;;;;;5072231;28;20371;-69
2021/09/05 13:21:36;;;;;;;;;;;12.60;99.90;;;;;;5071659;28;19909;-69
2021/09/05 13:24:03;;;;;;;;;;;12.60;99.90;;;;;;5071813;28;19966;-68
2021/09/05 13:26:30;;;;;;;;;;;12.60;99.90;;;;;;5071697;28;19955;-71
2021/09/05 13:28:57;;;;;;;;;;;12.60;99.90;;;;;;5071855;28;19915;-71
2021/09/05 13:31:32;;;;;;;;;;;12.50;99.90;;;;;;5072513;28;19924;-69
2021/09/05 13:34:00;;;;;;;;;;;12.50;99.90;;;;;;5075409;28;19912;-70
2021/09/05 13:36:26;;;;;;;;;;;12.60;99.90;;;;;;5075292;28;19912;-69
2021/09/05 13:38:53;;;;;;;;;;;12.50;99.90;;;;;;5075464;28;19908;-71
2021/09/05 13:41:20;;;;;;;;;;;12.60;99.90;;;;;;5075240;28;19982;-70
2021/09/05 13:43:46;;;;;;;;;;;12.60;99.90;;;;;;5075143;28;20381;-70
2021/09/05 13:46:13;;;;;;;;;;;12.50;99.90;;;;;;5075235;28;19916;-71
2021/09/05 13:48:40;;;;;;;;;;;12.60;99.90;;;;;;5074985;28;19920;-70
2021/09/05 13:51:08;;;;;;;;;;;12.60;99.90;;;;;;5075114;28;19916;-71
2021/09/05 13:53:34;;;;;;;;;;;12.50;99.90;;;;;;5075240;28;19915;-70
2021/09/05 13:56:01;;;;;;;;;;;12.50;99.90;;;;;;5074965;28;19908;-70
2021/09/05 13:58:28;;;;;;;;;;;12.50;99.90;;;;;;5075124;28;19908;-70
2021/09/05 14:00:54;;;;;;;;;;;12.50;99.90;;;;;;5074818;28;19995;-70
2021/09/05 14:03:21;;;;;;;;;;;12.50;99.90;;;;;;5074932;28;19943;-70
2021/09/05 14:05:47;;;;;;;;;;;12.50;99.90;;;;;;5074764;28;19913;-68
2021/09/05 14:08:15;;;;;;;;;;;12.50;99.90;;;;;;5074915;28;19909;-70
2021/09/05 14:10:42;;;;;;;;;;;12.50;99.90;;;;;;5074582;28;19962;-70
2021/09/05 14:13:08;;;;;;;;;;;12.50;99.90;;;;;;5074817;28;19909;-70
2021/09/05 14:15:35;;;;;;;;;;;12.50;99.90;;;;;;5074668;28;19919;-70
2021/09/05 14:18:02;;;;;;;;;;;12.50;99.90;;;;;;5074583;28;19909;-70
2021/09/05 14:20:28;;;;;;;;;;;12.50;99.90;;;;;;5074526;28;19916;-70